Time;durP1;ratioP1;P1;durP2;ratioP2;P2;SDS_P1;SDS_P2;PMS_P1;PMS_P2;Temp;Humidity;BMP_temperature;BMP_pressure;BME280_temperature;BME280_humidity;BME280_pressure;Samples;Min_cycle;Max_cycle;Signal;HPM_P1;HPM_P2
2023/04/12 00:01:03;;;;;;;8.45;5.25;;;;;;;12.38;48.79;98624.88;3136161;28;20041;-64
2023/04/12 00:02:36;;;;;;;7.80;4.85;;;;;;;12.39;49.03;98630.94;3142645;28;20056;-64
2023/04/12 00:04:08;;;;;;;7.10;4.57;;;;;;;12.34;49.21;98620.81;3145782;28;20048;-63
2023/04/12 00:05:45;;;;;;;7.20;4.90;;;;;;;12.31;49.19;98621.03;3145873;28;20056;-64
2023/04/12 00:07:17;;;;;;;8.05;5.10;;;;;;;12.31;48.88;98617.59;3141072;28;20056;-63
2023/04/12 00:08:49;;;;;;;7.63;4.00;;;;;;;11.99;48.93;98569.34;3140768;28;20056;-64
2023/04/12 00:10:21;;;;;;;7.40;4.65;;;;;;;12.22;49.03;98606.03;3141362;28;20097;-64
2023/04/12 00:11:53;;;;;;;7.55;4.88;;;;;;;12.24;49.09;98609.34;3145431;28;20044;-65
2023/04/12 00:13:23;;;;;;;5.80;3.92;;;;;;;12.24;49.26;98617.19;3143772;28;20162;-65
2023/04/12 00:14:56;;;;;;;7.07;4.40;;;;;;;12.23;48.99;98618.13;3145331;28;20596;-64
2023/04/12 00:16:29;;;;;;;5.55;4.13;;;;;;;12.22;49.00;98608.66;3138787;28;20056;-65
2023/04/12 00:18:01;;;;;;;6.13;4.38;;;;;;;12.21;49.16;98614.78;3135413;28;20102;-65
2023/04/12 00:19:32;;;;;;;7.68;4.32;;;;;;;12.13;48.95;98601.47;3145076;28;20064;-65
2023/04/12 00:21:04;;;;;;;6.65;4.22;;;;;;;12.20;49.08;98619.19;3144336;28;20197;-64
2023/04/12 00:22:36;;;;;;;7.38;4.35;;;;;;;12.22;49.09;98619.09;3133190;28;20056;-65
2023/04/12 00:24:08;;;;;;;8.13;4.43;;;;;;;12.14;49.05;98610.97;3124642;28;20444;-65
2023/04/12 00:25:40;;;;;;;5.53;3.60;;;;;;;12.19;48.83;98616.69;3145171;28;20102;-65
2023/04/12 00:27:11;;;;;;;5.93;4.38;;;;;;;12.12;49.08;98605.00;3145516;28;20484;-65
2023/04/12 00:28:43;;;;;;;8.38;4.38;;;;;;;12.18;48.95;98609.78;3136393;28;20128;-65
2023/04/12 00:30:15;;;;;;;7.18;4.35;;;;;;;12.21;48.92;98615.63;3135011;28;20389;-65
2023/04/12 00:31:47;;;;;;;8.23;4.30;;;;;;;12.11;48.94;98598.13;3142264;28;20052;-65
2023/04/12 00:33:19;;;;;;;8.55;4.60;;;;;;;12.14;48.92;98606.56;3145707;28;20375;-65
2023/04/12 00:34:51;;;;;;;7.90;4.43;;;;;;;12.17;48.96;98611.56;3140472;28;20045;-63
2023/04/12 00:36:23;;;;;;;7.55;4.40;;;;;;;12.17;49.32;98613.34;3140069;28;20106;-63
2023/04/12 00:37:55;;;;;;;8.20;3.83;;;;;;;12.05;48.94;98597.63;3145417;28;20483;-63
2023/04/12 00:39:26;;;;;;;10.27;4.30;;;;;;;12.14;49.04;98603.13;3137950;28;20509;-63
2023/04/12 00:40:58;;;;;;;8.02;4.82;;;;;;;12.14;49.03;98606.56;3145437;28;20544;-63
2023/04/12 00:42:30;;;;;;;9.50;4.93;;;;;;;12.12;49.13;98605.00;3145593;28;20071;-65
2023/04/12 00:44:01;;;;;;;11.10;4.70;;;;;;;12.12;49.36;98607.63;3135802;28;20044;-65
2023/04/12 00:45:33;;;;;;;7.25;4.60;;;;;;;12.08;49.59;98593.97;3145676;28;20071;-64
2023/04/12 00:47:07;;;;;;;6.43;4.10;;;;;;;12.09;49.26;98600.84;3144646;28;20102;-63
2023/04/12 00:48:39;;;;;;;;;;;;;;;12.00;49.65;98594.47;3145909;28;20048;-63
2023/04/12 00:50:11;;;;;;;8.82;4.20;;;;;;;12.02;49.62;98597.00;3145145;28;19924;-64
2023/04/12 00:51:42;;;;;;;8.48;4.72;;;;;;;12.02;49.43;98597.81;3145658;28;20114;-64
2023/04/12 00:53:16;;;;;;;7.15;4.28;;;;;;;12.03;49.38;98594.28;3142174;28;20131;-63
2023/04/12 00:54:48;;;;;;;5.45;3.83;;;;;;;12.03;49.58;98593.44;3145019;28;20052;-63
2023/04/12 00:56:22;;;;;;;5.90;3.88;;;;;;;12.04;49.44;98595.94;3136294;28;20053;-64
2023/04/12 00:57:54;;;;;;;8.02;4.50;;;;;;;12.03;49.62;98590.84;3140885;28;20445;-63
2023/04/12 00:59:26;;;;;;;6.78;4.40;;;;;;;12.01;49.54;98590.97;3142774;28;20098;-63
2023/04/12 01:00:57;;;;;;;8.63;3.95;;;;;;;12.04;49.54;98593.34;3133556;28;20053;-64
2023/04/12 01:02:32;;;;;;;7.88;4.28;;;;;;;12.04;49.48;98590.75;3141213;28;20052;-63
2023/04/12 01:04:04;;;;;;;9.32;3.67;;;;;;;12.03;49.59;98589.06;3144996;28;20048;-63
2023/04/12 01:05:43;;;;;;;7.32;4.07;;;;;;;12.03;49.43;98590.84;3144948;28;20441;-63
2023/04/12 01:07:25;;;;;;;10.38;4.28;;;;;;;12.03;49.74;98583.00;3135529;28;20481;-63
2023/04/12 01:09:05;;;;;;;9.23;4.60;;;;;;;12.01;49.91;98583.13;3136578;28;20106;-63
2023/04/12 01:10:45;;;;;;;7.18;4.05;;;;;;;11.99;49.50;98584.16;3145076;28;20067;-63
2023/04/12 01:12:24;;;;;;;8.32;4.40;;;;;;;12.00;49.54;98585.81;3137128;28;20072;-63
2023/04/12 01:14:05;;;;;;;5.63;4.05;;;;;;;11.98;49.91;98578.13;3141278;28;20156;-63
2023/04/12 01:15:45;;;;;;;5.75;4.20;;;;;;;11.95;49.94;98569.66;3144439;28;20052;-63
2023/04/12 01:17:23;;;;;;;6.85;4.07;;;;;;;11.95;49.67;98570.50;3142653;28;20044;-63
2023/04/12 01:19:04;;;;;;;8.55;4.43;;;;;;;11.99;49.69;98571.94;3144961;28;20517;-63
2023/04/12 01:20:43;;;;;;;6.28;4.07;;;;;;;11.98;49.93;98567.69;3144750;28;20045;-64
2023/04/12 01:22:26;;;;;;;5.70;3.60;;;;;;;11.96;49.93;98566.97;3143227;28;20056;-64
2023/04/12 01:24:20;;;;;;;5.78;3.97;;;;;;;11.93;49.85;98561.13;3143767;28;20052;-64
2023/04/12 01:26:02;;;;;;;6.63;4.25;;;;;;;11.91;50.11;98569.03;3135706;28;20049;-64
2023/04/12 01:27:42;;;;;;;5.90;3.80;;;;;;;11.90;50.01;98550.91;3121114;28;20088;-64
2023/04/12 01:29:16;;;;;;;7.85;4.45;;;;;;;11.91;50.24;98553.41;3122297;28;20111;-63
2023/04/12 01:30:49;;;;;;;6.75;4.28;;;;;;;11.92;50.23;98546.41;3144562;28;20437;-64
2023/04/12 01:32:21;;;;;;;5.70;4.18;;;;;;;11.92;50.21;98554.22;3145174;28;20510;-64
2023/04/12 01:33:54;;;;;;;6.63;4.18;;;;;;;11.91;50.39;98542.13;3145000;28;20102;-64
2023/04/12 01:35:28;;;;;;;;;;;;;;;11.86;50.62;98549.44;3135151;28;20048;-63
2023/04/12 01:37:02;;;;;;;7.97;4.35;;;;;;;11.85;50.57;98546.00;3141359;28;19924;-64
2023/04/12 01:38:35;;;;;;;5.70;4.03;;;;;;;11.76;50.43;98525.75;3138855;28;20053;-64
2023/04/12 01:40:08;;;;;;;10.05;3.75;;;;;;;11.84;50.54;98541.69;3132227;28;20710;-64
2023/04/12 01:41:42;;;;;;;6.32;3.90;;;;;;;11.87;50.44;98541.53;3142720;28;20052;-64
2023/04/12 01:43:14;;;;;;;7.97;4.20;;;;;;;11.89;50.80;98544.88;3139477;28;20068;-63
2023/04/12 01:44:46;;;;;;;6.63;3.85;;;;;;;11.88;50.44;98555.38;3141438;28;20466;-64
2023/04/12 01:46:21;;;;;;;7.40;4.35;;;;;;;11.90;50.46;98548.28;3136437;28;20455;-64
2023/04/12 01:47:53;;;;;;;8.05;4.85;;;;;;;11.89;50.80;98542.25;3140341;28;20053;-63
2023/04/12 01:49:31;;;;;;;7.95;4.00;;;;;;;11.93;50.74;98555.91;3144339;28;20117;-63
2023/04/12 01:51:06;;;;;;;5.55;3.90;;;;;;;11.93;50.33;98546.31;3144653;28;20056;-63
2023/04/12 01:52:46;;;;;;;9.85;4.72;;;;;;;11.96;50.46;98555.69;3140518;28;20518;-63
2023/04/12 01:54:22;;;;;;;6.30;4.13;;;;;;;11.90;50.55;98551.75;3140766;28;20117;-63
2023/04/12 01:56:00;;;;;;;7.40;4.25;;;;;;;11.95;50.64;98554.00;3141244;28;20575;-63
2023/04/12 01:57:33;;;;;;;6.43;4.10;;;;;;;11.90;50.38;98545.69;3140509;28;20045;-64
2023/04/12 01:59:08;;;;;;;8.70;4.25;;;;;;;11.94;50.78;98558.38;3139235;28;20052;-63
2023/04/12 02:00:41;;;;;;;7.38;4.75;;;;;;;11.93;50.84;98551.53;3135311;28;20072;-63
2023/04/12 02:02:14;;;;;;;5.57;4.22;;;;;;;11.95;50.54;98554.00;3132864;28;20040;-64
2023/04/12 02:03:49;;;;;;;10.85;4.90;;;;;;;11.93;50.83;98559.34;3144753;28;20128;-63
2023/04/12 02:05:22;;;;;;;6.30;4.50;;;;;;;11.91;50.70;98566.44;3144636;28;20040;-64
2023/04/12 02:06:54;;;;;;;6.97;4.95;;;;;;;11.91;50.71;98558.59;3140171;28;20049;-64
2023/04/12 02:08:26;;;;;;;7.67;4.73;;;;;;;11.88;51.12;98558.00;3124647;28;20111;-64
2023/04/12 02:09:58;;;;;;;7.35;4.15;;;;;;;11.81;50.89;98541.91;3132005;28;20720;-64
2023/04/12 02:11:30;;;;;;;8.85;4.30;;;;;;;11.90;50.78;98556.13;3134870;28;20049;-64
2023/04/12 02:13:03;;;;;;;8.32;4.43;;;;;;;11.90;50.92;98556.13;3135169;28;20098;-64
2023/04/12 02:14:36;;;;;;;6.68;4.28;;;;;;;11.87;51.04;98558.94;3144056;28;20183;-64
2023/04/12 02:16:09;;;;;;;5.97;3.88;;;;;;;11.82;51.33;98557.44;3144775;28;20052;-63
2023/04/12 02:17:41;;;;;;;7.40;5.07;;;;;;;11.84;51.44;98559.97;3137390;28;20073;-63
2023/04/12 02:19:13;;;;;;;6.72;4.57;;;;;;;11.83;51.14;98560.88;3144197;28;20117;-66
2023/04/12 02:20:45;;;;;;;10.55;4.68;;;;;;;11.83;51.22;98553.91;3141002;28;20139;-64
2023/04/12 02:22:16;;;;;;;10.25;4.40;;;;;;;11.84;51.41;98563.41;3133196;28;20419;-63
2023/04/12 02:23:49;;;;;;;9.50;4.50;;;;;;;11.84;51.58;98559.97;3141285;28;20055;-63
2023/04/12 02:25:21;;;;;;;6.75;4.40;;;;;;;11.85;51.22;98561.66;3144594;28;20102;-63
2023/04/12 02:26:53;;;;;;;12.75;4.30;;;;;;;11.81;51.17;98553.19;3144440;28;20056;-66
2023/04/12 02:28:25;;;;;;;10.57;4.22;;;;;;;11.83;51.56;98553.06;3137007;28;20118;-62
2023/04/12 02:29:59;;;;;;;7.25;4.20;;;;;;;11.85;51.29;98559.03;3139830;28;20595;-63
2023/04/12 02:31:31;;;;;;;8.25;4.30;;;;;;;11.81;51.06;98539.31;3144299;28;20441;-63
2023/04/12 02:33:04;;;;;;;7.87;3.90;;;;;;;11.85;51.06;98553.81;3144161;28;20597;-64
2023/04/12 02:34:37;;;;;;;8.88;4.97;;;;;;;11.85;50.98;98564.25;3141313;28;20704;-63
2023/04/12 02:36:10;;;;;;;6.70;3.85;;;;;;;11.80;50.99;98546.31;3137383;28;20105;-63
2023/04/12 02:37:42;;;;;;;8.25;4.60;;;;;;;11.83;51.08;98548.69;3144142;28;20512;-63
2023/04/12 02:39:17;;;;;;;5.97;4.03;;;;;;;11.65;50.97;98518.66;3138227;28;20135;-64
2023/04/12 02:40:49;;;;;;;6.30;4.22;;;;;;;11.86;50.85;98545.09;3143939;28;20826;-64
2023/04/12 02:42:21;;;;;;;6.40;4.40;;;;;;;11.88;51.24;98547.56;3144358;28;20067;-63
2023/04/12 02:43:53;;;;;;;7.55;4.50;;;;;;;11.89;50.95;98547.47;3135982;28;20442;-64
2023/04/12 02:45:25;;;;;;;9.63;3.88;;;;;;;11.81;51.11;98536.69;3142648;28;20052;-64
2023/04/12 02:46:57;;;;;;;8.40;4.10;;;;;;;11.89;50.87;98544.88;3132578;28;20063;-64
2023/04/12 02:48:29;;;;;;;8.70;4.25;;;;;;;11.87;50.92;98551.94;3144379;28;20052;-63
2023/04/12 02:50:00;;;;;;;6.80;4.40;;;;;;;11.90;50.74;98548.28;3135992;28;20098;-64
2023/04/12 02:51:31;;;;;;;7.65;4.35;;;;;;;11.90;51.07;98540.47;3144451;28;20189;-64
2023/04/12 02:53:03;;;;;;;6.20;4.38;;;;;;;11.88;50.99;98543.16;3144032;28;20059;-64
2023/04/12 02:54:35;;;;;;;6.95;4.00;;;;;;;11.89;50.79;98542.25;3144034;28;20048;-64
2023/04/12 02:56:08;;;;;;;8.00;4.13;;;;;;;11.87;50.78;98541.53;3143774;28;20059;-63
2023/04/12 02:57:40;;;;;;;11.27;4.25;;;;;;;11.86;50.61;98536.41;3141012;28;20056;-64
2023/04/12 02:59:12;;;;;;;7.35;4.20;;;;;;;11.86;50.89;98542.47;3135357;28;20505;-64
2023/04/12 03:00:46;;;;;;;7.43;4.38;;;;;;;11.87;51.00;98538.09;3133866;28;20369;-64
2023/04/12 03:02:17;;;;;;;6.55;3.88;;;;;;;11.83;50.66;98540.88;3133590;28;20076;-64
2023/04/12 03:03:49;;;;;;;5.97;3.55;;;;;;;11.84;51.00;98537.31;3133779;28;20060;-64
2023/04/12 03:05:21;;;;;;;5.72;3.80;;;;;;;11.81;50.82;98531.50;3128016;28;20185;-64
2023/04/12 03:06:52;;;;;;;6.15;3.97;;;;;;;11.77;50.57;98525.66;3131696;28;20052;-63
2023/04/12 03:08:24;;;;;;;7.72;3.80;;;;;;;11.67;50.63;98516.78;3137362;28;20051;-63
2023/04/12 03:09:56;;;;;;;8.15;4.28;;;;;;;11.83;50.76;98537.41;3129767;28;20114;-63
2023/04/12 03:11:27;;;;;;;8.82;4.55;;;;;;;11.77;50.68;98520.44;3141265;28;20226;-63
2023/04/12 03:12:59;;;;;;;6.18;3.63;;;;;;;11.81;50.60;98534.09;3137083;28;20592;-63
2023/04/12 03:14:30;;;;;;;6.10;3.95;;;;;;;11.79;50.53;98520.31;3140303;28;20456;-63
2023/04/12 03:16:22;;;;;;;6.07;4.00;;;;;;;11.83;50.46;98529.59;3129460;28;20543;-64
2023/04/12 03:17:54;;;;;;;7.55;3.97;;;;;;;11.74;50.69;98515.44;3138084;28;20041;-63
2023/04/12 03:19:25;;;;;;;8.02;4.20;;;;;;;11.83;50.33;98540.00;3137327;28;20052;-64
2023/04/12 03:20:57;;;;;;;7.80;4.00;;;;;;;11.85;50.64;98540.78;3141079;28;20621;-63
2023/04/12 03:22:29;;;;;;;6.90;4.25;;;;;;;11.83;50.33;98532.19;3141510;28;20055;-63
2023/04/12 03:24:03;;;;;;;7.43;4.22;;;;;;;11.86;50.56;98532.03;3141332;28;20409;-63
2023/04/12 03:25:34;;;;;;;7.05;4.72;;;;;;;11.81;50.39;98527.09;3140988;28;20505;-63
2023/04/12 03:27:07;;;;;;;8.10;4.68;;;;;;;11.88;50.56;98535.34;3141420;28;20108;-63
2023/04/12 03:28:39;;;;;;;8.70;4.47;;;;;;;11.87;50.27;98523.25;3132965;28;20049;-64
2023/04/12 03:30:11;;;;;;;7.15;4.05;;;;;;;11.82;50.52;98528.75;3137709;28;20052;-63
2023/04/12 03:31:45;;;;;;;7.25;3.80;;;;;;;11.88;50.09;98537.97;3137521;28;20056;-63
2023/04/12 03:33:16;;;;;;;;;;;;;;;11.84;50.43;98537.31;3137697;28;20575;-63
2023/04/12 03:34:48;;;;;;;7.35;4.05;;;;;;;11.81;50.52;98539.31;3126465;28;20406;-63
2023/04/12 03:36:21;;;;;;;6.63;4.05;;;;;;;11.89;50.02;98539.66;3135987;28;20052;-63
2023/04/12 03:37:53;;;;;;;8.10;4.57;;;;;;;11.86;50.06;98536.41;3140965;28;20041;-62
2023/04/12 03:39:24;;;;;;;8.52;4.85;;;;;;;11.92;49.94;98543.78;3135603;28;20375;-63
2023/04/12 03:40:56;;;;;;;7.60;5.03;;;;;;;11.92;49.85;98544.66;3140834;28;20048;-65
2023/04/12 03:42:29;;;;;;;8.13;4.78;;;;;;;11.93;49.86;98546.31;3140921;28;20053;-64
2023/04/12 03:43:59;;;;;;;8.98;4.40;;;;;;;11.92;50.02;98549.00;3134044;28;20049;-62
2023/04/12 03:45:31;;;;;;;6.82;4.05;;;;;;;11.94;49.51;98547.97;3139983;28;20059;-64
2023/04/12 03:47:04;;;;;;;9.20;4.22;;;;;;;11.96;49.82;98545.25;3132086;28;20536;-65
2023/04/12 03:48:36;;;;;;;8.75;4.47;;;;;;;11.95;49.60;98539.22;3138333;28;20175;-64
2023/04/12 03:50:09;;;;;;;10.02;4.25;;;;;;;11.94;49.33;98542.75;3140976;28;20052;-63
2023/04/12 03:51:41;;;;;;;6.57;4.15;;;;;;;11.92;49.55;98542.03;3141029;28;20052;-63
2023/04/12 03:53:13;;;;;;;7.05;3.95;;;;;;;11.97;49.48;98546.91;3141012;28;20892;-64
2023/04/12 03:54:44;;;;;;;8.90;4.47;;;;;;;11.96;49.65;98546.09;3140925;28;20107;-64
2023/04/12 03:56:16;;;;;;;7.93;3.67;;;;;;;11.94;49.38;98541.91;3141258;28;20801;-64
2023/04/12 03:57:48;;;;;;;7.90;3.92;;;;;;;11.95;49.44;98547.03;3139375;28;20071;-64
2023/04/12 03:59:20;;;;;;;6.10;4.10;;;;;;;11.95;49.68;98552.25;3139400;28;20281;-64
2023/04/12 04:00:52;;;;;;;9.90;4.68;;;;;;;11.96;49.50;98553.91;3132848;28;20114;-64
2023/04/12 04:02:26;;;;;;;8.25;4.22;;;;;;;11.86;49.95;98529.44;3128883;28;20059;-64
2023/04/12 04:03:57;;;;;;;7.15;4.45;;;;;;;11.95;49.84;98547.03;3137507;28;20056;-64
2023/04/12 04:05:30;;;;;;;7.30;4.38;;;;;;;11.94;49.63;98547.97;3140495;28;20060;-64
2023/04/12 04:07:02;;;;;;;8.00;4.38;;;;;;;11.89;49.83;98542.25;3137250;28;20250;-64
2023/04/12 04:08:35;;;;;;;8.85;4.63;;;;;;;11.92;49.99;98549.88;3141135;28;20126;-64
2023/04/12 04:10:07;;;;;;;10.35;5.25;;;;;;;11.88;50.37;98550.16;3140502;28;20045;-64
2023/04/12 04:11:39;;;;;;;8.52;4.55;;;;;;;11.87;50.22;98559.78;3137983;28;20071;-64
2023/04/12 04:13:11;;;;;;;8.55;4.78;;;;;;;11.86;50.51;98555.50;3126386;28;20055;-67
2023/04/12 04:14:43;;;;;;;8.70;4.57;;;;;;;11.84;50.62;98560.78;3132477;28;20122;-68
2023/04/12 04:16:16;;;;;;;10.30;5.28;;;;;;;11.83;50.75;98556.53;3141000;28;20048;-65
2023/04/12 04:17:50;;;;;;;10.45;5.30;;;;;;;11.83;51.32;98566.97;3136419;28;20114;-64
2023/04/12 04:19:22;;;;;;;9.75;4.97;;;;;;;11.75;51.27;98558.81;3140748;28;20117;-64
2023/04/12 04:20:53;;;;;;;13.75;5.40;;;;;;;11.79;51.41;98568.09;3140833;28;20445;-65
2023/04/12 04:22:25;;;;;;;9.38;5.13;;;;;;;11.81;51.47;98573.22;3139531;28;20551;-64
2023/04/12 04:23:59;;;;;;;7.95;4.93;;;;;;;11.76;51.50;98564.88;3140550;28;20052;-64
2023/04/12 04:25:32;;;;;;;7.40;5.03;;;;;;;11.75;51.70;98563.22;3139868;28;20053;-64
2023/04/12 04:27:05;;;;;;;8.37;5.03;;;;;;;11.70;51.62;98560.09;3136480;28;20298;-65
2023/04/12 04:28:37;;;;;;;9.57;5.05;;;;;;;11.74;51.88;98566.75;3130005;28;20044;-65
2023/04/12 04:30:10;;;;;;;9.95;5.00;;;;;;;11.26;51.66;98494.44;3139971;28;20520;-64
2023/04/12 04:31:44;;;;;;;9.65;5.28;;;;;;;11.75;51.78;98573.66;3138761;28;20056;-67
2023/04/12 04:33:18;;;;;;;9.10;5.50;;;;;;;11.75;51.51;98571.03;3140311;28;20122;-64
2023/04/12 04:34:51;;;;;;;9.57;5.25;;;;;;;11.74;51.61;98571.97;3137368;28;20053;-63
2023/04/12 04:36:23;;;;;;;13.13;5.35;;;;;;;11.74;51.41;98583.25;3138740;28;20314;-63
2023/04/12 04:37:55;;;;;;;8.60;5.40;;;;;;;11.69;51.50;98572.28;3135311;28;20806;-64
2023/04/12 04:39:27;;;;;;;11.93;5.97;;;;;;;11.75;51.35;98584.91;3134374;28;20121;-64
2023/04/12 04:41:01;;;;;;;11.77;5.72;;;;;;;11.70;51.70;98565.31;3140263;28;20497;-63
2023/04/12 04:42:33;;;;;;;9.48;5.80;;;;;;;11.79;51.33;98590.75;3138243;28;20098;-62
2023/04/12 04:44:08;;;;;;;9.98;5.32;;;;;;;11.80;51.27;98581.97;3134891;28;20082;-65
2023/04/12 04:45:40;;;;;;;17.48;11.35;;;;;;;11.82;51.39;98593.97;3140411;28;20547;-65
2023/04/12 04:47:12;;;;;;;13.02;7.13;;;;;;;11.73;51.23;98565.91;3128630;28;20577;-66
2023/04/12 04:48:45;;;;;;;11.88;6.35;;;;;;;11.87;51.25;98582.44;3132224;28;20048;-61
2023/04/12 04:50:17;;;;;;;12.50;5.93;;;;;;;11.86;51.28;98579.00;3140653;28;20052;-62
2023/04/12 04:51:49;;;;;;;15.18;5.53;;;;;;;11.91;51.45;98576.88;3140031;28;20060;-61
2023/04/12 04:53:24;;;;;;;10.95;5.38;;;;;;;11.96;51.04;98577.38;3128810;28;20057;-60
2023/04/12 04:54:56;;;;;;;9.75;5.22;;;;;;;11.99;51.05;98574.56;3132274;28;20105;-60
2023/04/12 04:56:28;;;;;;;13.57;5.97;;;;;;;12.01;50.98;98585.72;3138157;28;20080;-60
2023/04/12 04:58:00;;;;;;;10.18;5.90;;;;;;;12.04;50.96;98585.53;3130724;28;20085;-61
2023/04/12 04:59:43;;;;;;;9.50;5.88;;;;;;;12.06;50.93;98581.00;3129895;28;20060;-62
2023/04/12 05:01:15;;;;;;;8.25;5.88;;;;;;;12.09;50.82;98581.75;3134918;28;20052;-61
2023/04/12 05:02:48;;;;;;;11.27;5.97;;;;;;;12.11;51.05;98585.09;3132987;28;20183;-65
2023/04/12 05:04:22;;;;;;;16.27;6.28;;;;;;;12.13;51.15;98586.66;3139969;28;20056;-62
2023/04/12 05:05:55;;;;;;;14.38;5.75;;;;;;;12.16;50.85;98577.78;3139936;28;20072;-61
2023/04/12 05:07:37;;;;;;;15.60;6.15;;;;;;;12.17;50.87;98584.66;3140046;28;20166;-61
2023/04/12 05:09:12;;;;;;;9.95;5.82;;;;;;;12.22;51.01;98582.56;3136311;28;20045;-61
2023/04/12 05:13:31;;;;;;;31.17;15.15;;;;;;;12.21;50.74;98573.88;3081692;28;20590;-63
2023/04/12 05:15:04;;;;;;;13.48;7.18;;;;;;;12.24;51.08;98571.03;3097873;28;20611;-63
2023/04/12 05:16:37;;;;;;;12.27;7.20;;;;;;;12.27;50.80;98576.06;3111539;28;20512;-64
2023/04/12 05:18:09;;;;;;;14.40;6.22;;;;;;;12.24;50.97;98557.16;3139800;28;20525;-62
2023/04/12 05:19:43;;;;;;;11.02;6.22;;;;;;;12.37;51.17;98573.63;3140021;28;20059;-62
2023/04/12 05:21:16;;;;;;;13.55;6.05;;;;;;;12.41;51.08;98574.22;3139764;28;20657;-62
2023/04/12 05:22:48;;;;;;;12.32;6.18;;;;;;;12.47;50.77;98576.38;3139698;28;20289;-64
2023/04/12 05:24:20;;;;;;;13.50;6.13;;;;;;;12.52;51.04;98576.91;3136255;28;20045;-64
2023/04/12 05:25:52;;;;;;;13.52;6.80;;;;;;;12.59;51.02;98579.88;3139551;28;20422;-66
2023/04/12 05:27:26;;;;;;;11.38;6.85;;;;;;;12.34;50.85;98537.28;3136878;28;20099;-65
2023/04/12 05:29:00;;;;;;;12.27;6.22;;;;;;;12.67;50.70;98586.22;3135838;28;20585;-64
2023/04/12 05:30:31;;;;;;;11.80;6.60;;;;;;;12.68;50.63;98587.03;3125871;28;20049;-65
2023/04/12 05:32:04;;;;;;;15.18;6.60;;;;;;;12.75;50.88;98591.72;3121536;28;20048;-64
2023/04/12 05:33:36;;;;;;;19.77;6.75;;;;;;;12.80;50.63;98601.81;3139513;28;20571;-66
2023/04/12 05:35:10;;;;;;;10.73;6.70;;;;;;;12.85;50.57;98591.03;3134338;28;20053;-65
2023/04/12 05:36:42;;;;;;;;;;;;;;;12.81;50.83;98589.59;3140240;28;20204;-64
2023/04/12 05:38:14;;;;;;;14.18;6.88;;;;;;;12.86;51.03;98590.91;3137349;28;20333;-66
2023/04/12 05:39:46;;;;;;;13.88;7.47;;;;;;;12.89;50.95;98587.25;3139392;28;20632;-66
2023/04/12 05:41:18;;;;;;;11.98;8.00;;;;;;;12.99;50.93;98588.25;3139855;28;20462;-65
2023/04/12 05:42:51;;;;;;;14.15;7.32;;;;;;;13.03;50.91;98594.91;3137290;28;20060;-65
2023/04/12 05:44:28;;;;;;;11.40;7.20;;;;;;;13.07;50.85;98588.47;3135052;28;20063;-65
2023/04/12 05:46:00;;;;;;;15.52;7.45;;;;;;;13.09;50.95;98596.22;3138743;28;20223;-67
2023/04/12 05:47:31;;;;;;;12.70;7.63;;;;;;;13.10;51.02;98585.66;3139304;28;20805;-67
2023/04/12 05:49:04;;;;;;;18.42;8.50;;;;;;;13.12;50.77;98598.59;3139462;28;20057;-64
2023/04/12 05:50:38;;;;;;;13.05;7.80;;;;;;;13.14;51.09;98596.72;3139546;28;20139;-66
2023/04/12 05:52:10;;;;;;;;;;;;;;;13.07;50.93;98593.72;3137936;28;20836;-65
2023/04/12 05:53:42;;;;;;;15.43;8.02;;;;;;;13.13;50.98;98595.03;3129921;28;19924;-64
2023/04/12 05:55:15;;;;;;;12.57;7.93;;;;;;;13.07;51.02;98580.66;3126670;28;20041;-65
2023/04/12 05:56:47;;;;;;;17.17;8.70;;;;;;;13.21;51.12;98595.31;3131234;28;20064;-66
2023/04/12 05:58:19;;;;;;;15.10;8.73;;;;;;;13.26;51.02;98592.38;3122868;28;20044;-67
2023/04/12 05:59:52;;;;;;;18.08;8.38;;;;;;;13.29;51.06;98581.69;3130622;28;20059;-67
2023/04/12 06:01:29;;;;;;;16.77;8.45;;;;;;;13.30;51.21;98591.19;3132578;28;20052;-64
2023/04/12 06:03:02;;;;;;;13.35;7.85;;;;;;;13.33;51.03;98590.97;3133574;28;20063;-65
2023/04/12 06:04:34;;;;;;;13.50;7.95;;;;;;;13.36;51.01;98585.50;3138642;28;20058;-63
2023/04/12 06:06:09;;;;;;;18.08;8.88;;;;;;;13.43;51.05;98582.31;3120558;28;20063;-63
2023/04/12 06:07:45;;;;;;;17.13;8.90;;;;;;;13.50;50.85;98584.47;3127310;28;20080;-63
2023/04/12 06:09:17;;;;;;;13.25;8.57;;;;;;;13.57;50.84;98588.25;3120374;28;20815;-62
2023/04/12 06:10:50;;;;;;;15.02;8.35;;;;;;;13.65;50.61;98580.66;3117414;28;20099;-63
2023/04/12 06:12:22;;;;;;;14.93;9.18;;;;;;;13.68;50.58;98588.25;3119199;28;20075;-62
2023/04/12 06:13:54;;;;;;;16.38;9.07;;;;;;;13.71;50.47;98595.88;3118064;28;20629;-61
2023/04/12 06:15:28;;;;;;;14.32;8.68;;;;;;;13.74;50.55;98589.59;3117677;28;20053;-66
2023/04/12 06:17:00;;;;;;;16.13;8.52;;;;;;;13.75;50.28;98597.28;3121991;28;20063;-65
2023/04/12 06:18:32;;;;;;;16.77;9.13;;;;;;;13.80;50.31;98599.56;3116124;28;20053;-66
2023/04/12 06:20:33;;;;;;;13.98;8.13;;;;;;;13.83;50.46;98594.91;3121587;28;20044;-65
2023/04/12 06:22:07;;;;;;;16.20;8.55;;;;;;;13.92;50.15;98597.78;3118272;28;20090;-63
2023/04/12 06:23:39;;;;;;;18.52;9.30;;;;;;;14.00;49.99;98604.09;3120809;28;20081;-63
2023/04/12 06:25:11;;;;;;;15.63;8.80;;;;;;;14.05;49.89;98603.72;3122486;28;20081;-64
2023/04/12 06:26:45;;;;;;;19.75;9.18;;;;;;;14.09;49.69;98605.97;3118145;28;20171;-62
2023/04/12 06:28:17;;;;;;;22.80;9.20;;;;;;;14.12;49.58;98604.91;3120277;28;20044;-65
2023/04/12 06:29:49;;;;;;;19.60;9.57;;;;;;;14.15;49.69;98595.97;3120161;28;20108;-64
2023/04/12 06:31:21;;;;;;;18.17;10.15;;;;;;;14.15;49.33;98609.06;3119249;28;20548;-65
2023/04/12 06:32:54;;;;;;;23.40;8.98;;;;;;;14.18;49.34;98606.22;3117179;28;20479;-67
2023/04/12 06:34:26;;;;;;;19.25;9.18;;;;;;;14.17;49.09;98609.75;3128007;28;20186;-63
2023/04/12 06:35:59;;;;;;;19.45;9.32;;;;;;;14.17;49.30;98617.63;3117288;28;20053;-63
2023/04/12 06:37:32;;;;;;;15.93;8.55;;;;;;;14.17;49.35;98617.63;3119766;28;20057;-63
2023/04/12 06:39:05;;;;;;;18.75;9.48;;;;;;;14.16;49.47;98605.50;3128289;28;20087;-63
2023/04/12 06:40:37;;;;;;;19.33;9.35;;;;;;;14.11;49.49;98608.50;3132318;28;20049;-63
2023/04/12 06:42:10;;;;;;;16.85;9.52;;;;;;;14.16;49.68;98608.09;3118252;28;20075;-63
2023/04/12 06:43:42;;;;;;;15.90;8.27;;;;;;;14.15;49.67;98615.13;3122411;28;20063;-63
2023/04/12 06:45:14;;;;;;;17.27;9.05;;;;;;;14.19;49.38;98615.72;3118426;28;20480;-65
2023/04/12 06:46:46;;;;;;;12.90;8.38;;;;;;;14.19;49.51;98613.94;3126876;28;20053;-62
2023/04/12 06:48:18;;;;;;;16.20;9.47;;;;;;;14.20;49.54;98613.00;3123641;28;20052;-63
2023/04/12 06:49:51;;;;;;;15.32;8.40;;;;;;;14.21;49.58;98609.41;3122656;28;20342;-64
2023/04/12 06:51:24;;;;;;;12.82;7.80;;;;;;;14.24;49.49;98614.41;3138885;28;20167;-61
2023/04/12 06:52:58;;;;;;;14.85;7.60;;;;;;;14.28;49.46;98615.81;3119882;28;20068;-64
2023/04/12 06:54:33;;;;;;;14.77;8.35;;;;;;;14.30;49.17;98616.53;3125427;28;20929;-63
2023/04/12 06:56:07;;;;;;;12.32;7.28;;;;;;;13.88;49.02;98558.75;3118303;28;20158;-63
2023/04/12 06:57:53;;;;;;;12.40;6.75;;;;;;;14.30;48.64;98618.34;3126923;28;20590;-65
2023/04/12 06:59:40;;;;;;;13.75;6.75;;;;;;;14.34;48.57;98625.84;3129735;28;20056;-64
2023/04/12 07:01:19;;;;;;;14.90;6.45;;;;;;;14.38;48.58;98628.22;3124164;28;20060;-66
2023/04/12 07:03:04;;;;;;;10.05;6.15;;;;;;;14.41;48.16;98626.16;3134393;28;20056;-65
2023/04/12 07:04:39;;;;;;;12.43;5.75;;;;;;;14.44;47.83;98627.72;3127816;28;20053;-65
2023/04/12 07:06:13;;;;;;;12.27;6.30;;;;;;;14.47;47.62;98622.22;3126496;28;20053;-63
2023/04/12 07:07:54;;;;;;;14.13;5.75;;;;;;;14.49;47.39;98620.31;3137320;28;20052;-64
2023/04/12 07:09:32;;;;;;;12.73;5.57;;;;;;;14.52;47.02;98623.56;3132849;28;20087;-64
2023/04/12 07:11:11;;;;;;;11.55;5.70;;;;;;;14.54;46.79;98620.81;3128814;28;20045;-64
2023/04/12 07:13:05;;;;;;;;;;;;;;;;;;;;;
2023/04/12 07:14:37;;;;;;;7.80;5.07;;;;;;;14.61;46.66;98631.63;3129016;28;20174;-61
2023/04/12 07:16:12;;;;;;;11.80;5.65;;;;;;;14.54;46.23;98600.69;3131427;28;20049;-61
2023/04/12 07:17:44;;;;;;;9.20;4.45;;;;;;;14.74;45.40;98621.81;3124711;28;20604;-63
2023/04/12 07:19:16;;;;;;;7.82;4.55;;;;;;;14.72;45.09;98610.63;3140198;28;20226;-62
2023/04/12 07:20:49;;;;;;;7.15;4.18;;;;;;;14.86;44.51;98610.34;3132830;28;20049;-60
2023/04/12 07:22:21;;;;;;;38.05;20.52;;;;;;;14.94;44.31;98613.19;3128759;28;20058;-68